createdAt,value
2019-03-24T00:00:16.548Z,0.00
2019-03-24T00:01:16.547Z,0.00
2019-03-24T00:02:16.545Z,0.00
2019-03-24T00:03:16.515Z,0.00
2019-03-24T00:04:16.501Z,0.00
2019-03-24T00:05:16.498Z,0.00
2019-03-24T00:06:16.482Z,0.00
2019-03-24T00:07:16.486Z,0.00
2019-03-24T00:08:16.455Z,0.00
2019-03-24T00:09:16.453Z,0.00
2019-03-24T00:10:16.432Z,0.00
2019-03-24T00:11:16.434Z,0.00
2019-03-24T00:12:16.440Z,0.00
2019-03-24T00:13:16.403Z,0.00
2019-03-24T00:14:16.391Z,0.00
2019-03-24T00:15:25.784Z,0.00
2019-03-24T00:16:17.383Z,0.00
2019-03-24T00:17:16.377Z,0.00
2019-03-24T00:18:16.345Z,0.00
2019-03-24T00:19:16.334Z,0.00
2019-03-24T00:20:16.329Z,0.00
2019-03-24T00:21:16.308Z,0.00
2019-03-24T00:22:16.417Z,0.00
2019-03-24T00:23:16.305Z,0.00
2019-03-24T00:24:16.302Z,0.00
2019-03-24T00:25:16.264Z,0.00
2019-03-24T00:26:16.258Z,0.00
2019-03-24T00:27:16.265Z,0.00
2019-03-24T00:28:16.232Z,0.00
2019-03-24T00:29:16.234Z,0.00
2019-03-24T00:30:16.211Z,0.00
2019-03-24T00:31:16.199Z,0.00
2019-03-24T00:32:16.208Z,0.00
2019-03-24T00:33:16.171Z,0.00
2019-03-24T00:34:16.172Z,0.00
2019-03-24T00:35:16.167Z,0.00
2019-03-24T00:36:16.201Z,0.00
2019-03-24T00:37:16.202Z,0.00
2019-03-24T00:38:16.128Z,0.00
2019-03-24T00:39:16.111Z,0.00
2019-03-24T00:40:16.103Z,0.00
2019-03-24T00:41:16.098Z,0.00
2019-03-24T00:42:16.171Z,0.00
2019-03-24T00:43:16.071Z,0.00
2019-03-24T00:44:16.058Z,0.00
2019-03-24T00:45:16.044Z,0.00
2019-03-24T00:46:16.037Z,0.00
2019-03-24T00:47:16.045Z,0.00
2019-03-24T00:48:16.019Z,0.00
2019-03-24T00:49:15.999Z,0.00
2019-03-24T00:50:15.980Z,0.00
2019-03-24T00:51:15.978Z,0.00
2019-03-24T00:52:15.963Z,0.00
2019-03-24T00:53:15.985Z,0.00
2019-03-24T00:54:15.943Z,0.00
2019-03-24T00:55:15.943Z,0.00
2019-03-24T00:56:15.915Z,0.00
2019-03-24T00:57:15.915Z,0.00
2019-03-24T00:58:15.918Z,0.00
2019-03-24T00:59:15.881Z,0.00
2019-03-24T01:00:15.873Z,0.00
2019-03-24T01:01:15.861Z,0.00
2019-03-24T01:02:15.859Z,0.00
2019-03-24T01:03:15.863Z,0.00
2019-03-24T01:04:15.837Z,0.00
2019-03-24T01:05:15.815Z,0.00
2019-03-24T01:06:15.817Z,0.00
2019-03-24T01:07:15.797Z,0.00
2019-03-24T01:08:15.797Z,0.00
2019-03-24T01:09:15.783Z,0.00
2019-03-24T01:10:15.763Z,0.00
2019-03-24T01:11:15.747Z,0.00
2019-03-24T01:12:15.737Z,0.00
2019-03-24T01:13:15.742Z,0.00
2019-03-24T01:14:15.731Z,0.00
2019-03-24T01:15:15.708Z,0.00
2019-03-24T01:16:15.696Z,0.00
2019-03-24T01:17:15.689Z,0.00
2019-03-24T01:18:15.700Z,0.00
2019-03-24T01:19:15.714Z,0.00
2019-03-24T01:20:15.651Z,0.00
2019-03-24T01:21:15.636Z,0.00
2019-03-24T01:22:15.630Z,0.00
2019-03-24T01:23:15.633Z,0.00
2019-03-24T01:24:15.603Z,0.00
2019-03-24T01:25:15.583Z,0.00
2019-03-24T01:26:15.582Z,0.00
2019-03-24T01:27:15.563Z,0.00
2019-03-24T01:28:15.571Z,0.00
2019-03-24T01:29:15.547Z,0.00
2019-03-24T01:30:15.544Z,0.00
2019-03-24T01:31:15.520Z,0.00
2019-03-24T01:32:15.516Z,0.00
2019-03-24T01:33:15.531Z,0.00
2019-03-24T01:34:15.506Z,0.00
2019-03-24T01:35:15.478Z,0.00
2019-03-24T01:36:15.468Z,0.00
2019-03-24T01:37:15.456Z,0.00
2019-03-24T01:38:15.445Z,0.00
2019-03-24T01:39:15.459Z,0.00
2019-03-24T01:40:15.419Z,0.00
2019-03-24T01:41:15.415Z,0.00
2019-03-24T01:42:15.410Z,0.00
2019-03-24T01:43:15.418Z,0.00
2019-03-24T01:44:15.402Z,0.00
2019-03-24T01:45:15.366Z,0.00
2019-03-24T01:46:15.353Z,0.00
2019-03-24T01:47:15.346Z,0.00
2019-03-24T01:48:15.335Z,0.00
2019-03-24T01:49:15.342Z,0.00
2019-03-24T01:50:15.313Z,0.00
2019-03-24T01:51:15.313Z,0.00
2019-03-24T01:52:15.287Z,0.00
2019-03-24T01:53:15.271Z,0.00
2019-03-24T01:54:15.292Z,0.00
2019-03-24T01:55:15.250Z,0.00
2019-03-24T01:56:15.245Z,0.00
2019-03-24T01:57:15.252Z,0.00
2019-03-24T01:58:15.230Z,0.00
2019-03-24T01:59:15.924Z,0.00
2019-03-24T02:00:15.205Z,0.00
2019-03-24T02:01:15.181Z,0.00
2019-03-24T02:02:15.190Z,0.00
2019-03-24T02:03:15.165Z,0.00
2019-03-24T02:04:15.174Z,0.00
2019-03-24T02:05:15.141Z,0.00
2019-03-24T02:06:15.142Z,0.00
2019-03-24T02:07:15.123Z,0.00
2019-03-24T02:08:15.115Z,0.00
2019-03-24T02:09:15.451Z,0.00
2019-03-24T02:10:15.078Z,0.00
2019-03-24T02:11:15.077Z,0.00
2019-03-24T02:12:15.059Z,0.00
2019-03-24T02:13:15.056Z,0.00
2019-03-24T02:14:15.059Z,0.00
2019-03-24T02:15:15.067Z,0.00
2019-03-24T02:16:15.017Z,0.00
2019-03-24T02:17:15.019Z,0.00
2019-03-24T02:18:14.992Z,0.00
2019-03-24T02:19:15.007Z,0.00
2019-03-24T02:20:14.972Z,0.00
2019-03-24T02:21:14.971Z,0.00
2019-03-24T02:22:14.952Z,0.00
2019-03-24T02:23:15.094Z,0.00
2019-03-24T02:24:14.968Z,0.00
2019-03-24T02:25:14.928Z,0.00
2019-03-24T02:26:14.904Z,0.00
2019-03-24T02:27:15.397Z,4.00
2019-03-24T02:28:16.471Z,4.00
2019-03-24T02:29:14.867Z,4.00
2019-03-24T02:30:14.888Z,8.00
2019-03-24T02:31:14.855Z,8.00
2019-03-24T02:32:14.851Z,8.00
2019-03-24T02:33:14.826Z,4.00
2019-03-24T02:34:14.815Z,8.00
2019-03-24T02:35:14.835Z,4.00
2019-03-24T02:36:14.802Z,8.00
2019-03-24T02:37:14.798Z,8.00
2019-03-24T02:38:14.799Z,8.00
2019-03-24T02:39:14.833Z,8.00
2019-03-24T02:40:14.774Z,8.00
2019-03-24T02:41:14.751Z,8.00
2019-03-24T02:42:14.733Z,8.00
2019-03-24T02:43:14.717Z,8.00
2019-03-24T02:44:14.715Z,8.00
2019-03-24T02:45:14.715Z,8.00
2019-03-24T02:46:24.267Z,8.00
2019-03-24T02:47:15.669Z,8.00
2019-03-24T02:48:14.660Z,8.00
2019-03-24T02:49:14.652Z,8.00
2019-03-24T02:50:14.664Z,8.00
2019-03-24T02:51:14.637Z,8.00
2019-03-24T02:52:14.629Z,8.00
2019-03-24T02:53:14.621Z,8.00
2019-03-24T02:54:14.593Z,8.00
2019-03-24T02:55:14.597Z,8.00
2019-03-24T02:56:14.586Z,8.00
2019-03-24T02:57:14.575Z,8.00
2019-03-24T02:58:14.566Z,8.00
2019-03-24T02:59:14.541Z,8.00
2019-03-24T03:00:14.591Z,8.00
2019-03-24T03:01:14.522Z,8.00
2019-03-24T03:02:14.500Z,8.00
2019-03-24T03:03:14.520Z,8.00
2019-03-24T03:04:14.482Z,8.00
2019-03-24T03:05:14.485Z,8.00
2019-03-24T03:06:14.460Z,8.00
2019-03-24T03:07:14.441Z,8.00
2019-03-24T03:08:14.438Z,8.00
2019-03-24T03:09:14.437Z,8.00
2019-03-24T03:10:14.448Z,8.00
2019-03-24T03:11:14.397Z,8.00
2019-03-24T03:12:14.386Z,8.00
2019-03-24T03:13:14.377Z,8.00
2019-03-24T03:14:14.368Z,8.00
2019-03-24T03:15:14.379Z,8.00
2019-03-24T03:16:14.345Z,8.00
2019-03-24T03:17:14.331Z,8.00
2019-03-24T03:18:14.317Z,8.00
2019-03-24T03:19:14.306Z,8.00
2019-03-24T03:20:14.316Z,8.00
2019-03-24T03:21:14.283Z,8.00
2019-03-24T03:22:14.289Z,8.00
2019-03-24T03:23:14.261Z,8.00
2019-03-24T03:24:14.270Z,8.00
2019-03-24T03:25:14.284Z,8.00
2019-03-24T03:26:14.243Z,8.00
2019-03-24T03:27:14.219Z,8.00
2019-03-24T03:28:14.259Z,8.00
2019-03-24T03:29:14.205Z,8.00
2019-03-24T03:30:14.209Z,8.00
2019-03-24T03:31:14.180Z,8.00
2019-03-24T03:32:14.170Z,8.00
2019-03-24T03:33:14.945Z,8.00
2019-03-24T03:34:14.142Z,8.00
2019-03-24T03:35:14.166Z,8.00
2019-03-24T03:36:14.186Z,8.00
2019-03-24T03:37:14.115Z,8.00
2019-03-24T03:38:14.094Z,8.00
2019-03-24T03:39:14.089Z,8.00
2019-03-24T03:40:14.097Z,8.00
2019-03-24T03:41:14.066Z,8.00
2019-03-24T03:42:14.052Z,8.00
2019-03-24T03:43:14.181Z,8.00
2019-03-24T03:44:14.058Z,8.00
2019-03-24T03:45:14.036Z,8.00
2019-03-24T03:46:14.030Z,8.00
2019-03-24T03:47:13.999Z,8.00
2019-03-24T03:48:13.984Z,8.00
2019-03-24T03:49:13.978Z,8.00
2019-03-24T03:50:13.968Z,8.00
2019-03-24T03:51:13.972Z,8.00
2019-03-24T03:52:13.939Z,8.00
2019-03-24T03:53:13.943Z,8.00
2019-03-24T03:54:13.918Z,8.00
2019-03-24T03:55:13.919Z,8.00
2019-03-24T03:56:13.929Z,8.00
2019-03-24T03:57:13.879Z,8.00
2019-03-24T03:58:13.875Z,8.00
2019-03-24T03:59:13.864Z,8.00
2019-03-24T04:00:13.851Z,8.00
2019-03-24T04:01:13.872Z,8.00
2019-03-24T04:02:13.836Z,8.00
2019-03-24T04:03:13.814Z,8.00
2019-03-24T04:04:13.811Z,8.00
2019-03-24T04:05:13.791Z,8.00
2019-03-24T04:06:13.804Z,8.00
2019-03-24T04:07:13.826Z,8.00
2019-03-24T04:08:13.774Z,8.00
2019-03-24T04:09:13.759Z,8.00
2019-03-24T04:10:13.739Z,8.00
2019-03-24T04:11:13.739Z,8.00
2019-03-24T04:12:13.724Z,8.00
2019-03-24T04:13:13.704Z,8.00
2019-03-24T04:14:13.690Z,8.00
2019-03-24T04:15:13.712Z,8.00
2019-03-24T04:16:13.693Z,8.00
2019-03-24T04:17:13.723Z,8.00
2019-03-24T04:18:13.660Z,8.00
2019-03-24T04:19:13.680Z,8.00
2019-03-24T04:20:13.638Z,8.00
2019-03-24T04:21:13.624Z,8.00
2019-03-24T04:22:13.602Z,8.00
2019-03-24T04:23:13.597Z,8.00
2019-03-24T04:24:13.586Z,8.00
2019-03-24T04:25:13.571Z,8.00
2019-03-24T04:26:13.570Z,0.00
2019-03-24T04:27:13.549Z,0.00
2019-03-24T04:28:13.542Z,0.00
2019-03-24T04:29:13.528Z,0.00
2019-03-24T04:30:13.570Z,0.00
2019-03-24T04:31:13.541Z,0.00
2019-03-24T04:32:13.486Z,4.00
2019-03-24T04:33:13.483Z,4.00
2019-03-24T04:34:13.472Z,4.00
2019-03-24T04:35:13.489Z,4.00
2019-03-24T04:36:13.445Z,4.00
2019-03-24T04:37:13.435Z,4.00
2019-03-24T04:38:13.428Z,8.00
2019-03-24T04:39:13.413Z,8.00
2019-03-24T04:40:13.426Z,8.00
2019-03-24T04:41:13.425Z,12.00
2019-03-24T04:42:13.377Z,12.00
2019-03-24T04:43:13.406Z,16.00
2019-03-24T04:44:13.358Z,16.00
2019-03-24T04:45:13.343Z,20.00
2019-03-24T04:46:13.356Z,20.00
2019-03-24T04:47:16.884Z,24.00
2019-03-24T04:48:13.310Z,28.00
2019-03-24T04:49:13.300Z,32.00
2019-03-24T04:50:13.296Z,36.00
2019-03-24T04:51:13.299Z,40.00
2019-03-24T04:52:13.271Z,48.00
2019-03-24T04:53:13.259Z,56.00
2019-03-24T04:54:13.243Z,64.00
2019-03-24T04:55:13.230Z,68.00
2019-03-24T04:56:13.239Z,76.00
2019-03-24T04:57:13.217Z,84.00
2019-03-24T04:58:13.206Z,92.00
2019-03-24T04:59:13.187Z,100.00
2019-03-24T05:00:13.177Z,112.00
2019-03-24T05:01:13.199Z,120.00
2019-03-24T05:02:13.171Z,132.00
2019-03-24T05:03:13.171Z,144.00
2019-03-24T05:04:13.142Z,156.00
2019-03-24T05:05:13.126Z,172.00
2019-03-24T05:06:13.129Z,188.00
2019-03-24T05:07:13.102Z,208.00
2019-03-24T05:08:13.088Z,228.00
2019-03-24T05:09:13.085Z,252.00
2019-03-24T05:10:13.099Z,280.00
2019-03-24T05:11:13.066Z,304.00
2019-03-24T05:12:13.047Z,324.00
2019-03-24T05:13:13.045Z,348.00
2019-03-24T05:14:13.015Z,372.00
2019-03-24T05:15:13.017Z,400.00
2019-03-24T05:16:13.022Z,428.00
2019-03-24T05:17:12.989Z,452.00
2019-03-24T05:18:12.973Z,484.00
2019-03-24T05:19:12.966Z,516.00
2019-03-24T05:20:12.955Z,548.00
2019-03-24T05:21:12.960Z,576.00
2019-03-24T05:22:12.929Z,612.00
2019-03-24T05:23:12.918Z,648.00
2019-03-24T05:24:12.911Z,684.00
2019-03-24T05:25:12.936Z,720.00
2019-03-24T05:26:12.902Z,760.00
2019-03-24T05:27:12.876Z,808.00
2019-03-24T05:28:12.868Z,860.00
2019-03-24T05:29:12.852Z,904.00
2019-03-24T05:30:12.845Z,960.00
2019-03-24T05:31:12.859Z,1012.00
2019-03-24T05:32:12.837Z,1068.00
2019-03-24T05:33:12.810Z,1124.00
2019-03-24T05:34:12.796Z,1184.00
2019-03-24T05:35:13.583Z,1232.00
2019-03-24T05:36:12.799Z,1264.00
2019-03-24T05:37:12.774Z,1288.00
2019-03-24T05:38:12.769Z,1296.00
2019-03-24T05:39:12.737Z,1304.00
2019-03-24T05:40:12.731Z,1316.00
2019-03-24T05:41:12.736Z,1324.00
2019-03-24T05:42:12.717Z,1328.00
2019-03-24T05:43:12.698Z,1328.00
2019-03-24T05:44:12.696Z,1328.00
2019-03-24T05:45:12.671Z,1336.00
2019-03-24T05:46:12.686Z,1336.00
2019-03-24T05:47:12.655Z,1336.00
2019-03-24T05:48:12.637Z,1340.00
2019-03-24T05:49:12.637Z,1340.00
2019-03-24T05:50:12.625Z,1340.00
2019-03-24T05:51:12.607Z,1316.00
2019-03-24T05:52:12.618Z,1328.00
2019-03-24T05:53:12.585Z,1352.00
2019-03-24T05:54:12.579Z,1380.00
2019-03-24T05:55:12.578Z,1408.00
2019-03-24T05:56:12.551Z,1444.00
2019-03-24T05:57:12.553Z,1476.00
2019-03-24T05:58:12.525Z,1512.00
2019-03-24T05:59:12.525Z,1540.00
2019-03-24T06:00:12.519Z,1576.00
2019-03-24T06:01:12.503Z,1600.00
2019-03-24T06:02:12.514Z,1648.00
2019-03-24T06:03:12.481Z,1692.00
2019-03-24T06:04:12.459Z,1768.00
2019-03-24T06:05:12.462Z,1780.00
2019-03-24T06:06:12.459Z,1824.00
2019-03-24T06:07:12.454Z,1816.00
2019-03-24T06:08:12.413Z,1872.00
2019-03-24T06:09:12.409Z,1944.00
2019-03-24T06:10:12.396Z,2000.00
2019-03-24T06:11:12.380Z,2064.00
2019-03-24T06:12:12.402Z,2112.00
2019-03-24T06:13:12.363Z,2152.00
2019-03-24T06:14:12.345Z,2200.00
2019-03-24T06:15:12.335Z,2240.00
2019-03-24T06:16:12.339Z,2200.00
2019-03-24T06:17:12.339Z,2304.00
2019-03-24T06:18:12.311Z,2336.00
2019-03-24T06:19:12.290Z,2284.00
2019-03-24T06:20:12.278Z,2272.00
2019-03-24T06:21:12.267Z,2092.00
2019-03-24T06:22:12.281Z,2172.00
2019-03-24T06:23:12.262Z,2160.00
2019-03-24T06:24:12.250Z,2164.00
2019-03-24T06:25:12.225Z,1964.00
2019-03-24T06:26:12.211Z,2060.00
2019-03-24T06:27:12.329Z,1952.00
2019-03-24T06:28:12.217Z,2016.00
2019-03-24T06:29:12.201Z,2220.00
2019-03-24T06:30:12.187Z,2508.00
2019-03-24T06:31:12.161Z,2584.00
2019-03-24T06:32:12.149Z,2616.00
2019-03-24T06:33:12.151Z,2700.00
2019-03-24T06:34:12.137Z,2748.00
2019-03-24T06:35:12.121Z,2808.00
2019-03-24T06:36:12.097Z,2788.00
2019-03-24T06:37:12.111Z,2716.00
2019-03-24T06:38:12.103Z,2820.00
2019-03-24T06:39:12.081Z,3092.00
2019-03-24T06:40:12.062Z,3128.00
2019-03-24T06:41:12.058Z,3292.00
2019-03-24T06:42:12.033Z,3108.00
2019-03-24T06:43:12.040Z,3200.00
2019-03-24T06:44:12.027Z,3388.00
2019-03-24T06:45:12.007Z,3412.00
2019-03-24T06:46:11.995Z,3572.00
2019-03-24T06:47:11.981Z,3460.00
2019-03-24T06:48:12.007Z,3616.00
2019-03-24T06:49:11.954Z,3520.00
2019-03-24T06:50:11.950Z,3544.00
2019-03-24T06:51:11.943Z,3732.00
2019-03-24T06:52:11.928Z,3624.00
2019-03-24T06:53:11.937Z,4104.00
2019-03-24T06:54:11.894Z,4532.00
2019-03-24T06:55:11.887Z,4656.00
2019-03-24T06:56:11.879Z,4700.00
2019-03-24T06:57:11.867Z,4992.00
2019-03-24T06:58:11.907Z,5228.00
2019-03-24T06:59:11.839Z,5392.00
2019-03-24T07:00:11.826Z,5496.00
2019-03-24T07:01:11.833Z,5704.00
2019-03-24T07:02:11.813Z,5836.00
2019-03-24T07:03:11.801Z,6116.00
2019-03-24T07:04:11.805Z,5440.00
2019-03-24T07:05:11.775Z,5152.00
2019-03-24T07:06:11.763Z,5168.00
2019-03-24T07:07:11.752Z,5148.00
2019-03-24T07:08:11.735Z,5156.00
2019-03-24T07:09:11.751Z,5112.00
2019-03-24T07:10:11.713Z,5096.00
2019-03-24T07:11:13.871Z,5112.00
2019-03-24T07:12:11.692Z,5092.00
2019-03-24T07:13:11.692Z,5268.00
2019-03-24T07:14:11.691Z,5420.00
2019-03-24T07:15:11.666Z,5572.00
2019-03-24T07:16:11.645Z,5688.00
2019-03-24T07:17:11.707Z,5804.00
2019-03-24T07:18:11.634Z,5964.00
2019-03-24T07:19:11.646Z,5980.00
2019-03-24T07:20:11.611Z,6048.00
2019-03-24T07:21:11.616Z,5980.00
2019-03-24T07:22:11.587Z,5848.00
2019-03-24T07:23:11.565Z,5908.00
2019-03-24T07:24:11.617Z,5776.00
2019-03-24T07:25:11.563Z,5800.00
2019-03-24T07:26:11.549Z,5672.00
2019-03-24T07:27:11.535Z,5540.00
2019-03-24T07:28:11.514Z,5532.00
2019-03-24T07:29:11.539Z,5592.00
2019-03-24T07:30:11.496Z,5600.00
2019-03-24T07:31:11.478Z,5684.00
2019-03-24T07:32:11.494Z,5636.00
2019-03-24T07:33:11.452Z,5428.00
2019-03-24T07:34:11.468Z,5372.00
2019-03-24T07:35:11.434Z,5196.00
2019-03-24T07:36:11.434Z,5112.00
2019-03-24T07:37:11.415Z,5024.00
2019-03-24T07:38:11.405Z,4968.00
2019-03-24T07:39:11.422Z,4724.00
2019-03-24T07:40:11.401Z,5092.00
2019-03-24T07:41:11.372Z,4948.00
2019-03-24T07:42:11.377Z,5188.00
2019-03-24T07:43:11.345Z,5044.00
2019-03-24T07:44:11.340Z,4264.00
2019-03-24T07:45:11.342Z,4916.00
2019-03-24T07:46:11.312Z,4328.00
2019-03-24T07:47:11.311Z,4368.00
2019-03-24T07:48:19.045Z,4348.00
2019-03-24T07:49:12.281Z,4152.00
2019-03-24T07:50:11.297Z,5532.00
2019-03-24T07:51:11.252Z,4564.00
2019-03-24T07:52:11.247Z,5328.00
2019-03-24T07:53:11.288Z,4964.00
2019-03-24T07:54:11.221Z,4688.00
2019-03-24T07:55:11.242Z,4796.00
2019-03-24T07:56:11.199Z,5032.00
2019-03-24T07:57:11.187Z,4824.00
2019-03-24T07:58:11.203Z,5876.00
2019-03-24T07:59:11.167Z,5648.00
2019-03-24T08:00:11.171Z,6360.00
2019-03-24T08:01:11.147Z,5920.00
2019-03-24T08:02:11.175Z,6264.00
2019-03-24T08:03:11.118Z,6404.00
2019-03-24T08:04:11.112Z,5836.00
2019-03-24T08:05:11.122Z,6828.00
2019-03-24T08:06:11.090Z,7096.00
2019-03-24T08:07:11.079Z,7144.00
2019-03-24T08:08:11.061Z,7768.00
2019-03-24T08:09:11.061Z,7556.00
2019-03-24T08:10:11.073Z,6956.00
2019-03-24T08:11:11.037Z,6580.00
2019-03-24T08:12:11.024Z,6648.00
2019-03-24T08:13:11.024Z,6892.00
2019-03-24T08:14:10.994Z,7652.00
2019-03-24T08:15:10.998Z,7920.00
2019-03-24T08:16:10.992Z,8464.00
2019-03-24T08:17:10.961Z,8896.00
2019-03-24T08:18:10.955Z,8444.00
2019-03-24T08:19:10.956Z,8816.00
2019-03-24T08:20:12.310Z,8368.00
2019-03-24T08:21:10.940Z,8364.00
2019-03-24T08:22:10.941Z,8536.00
2019-03-24T08:23:10.895Z,7760.00
2019-03-24T08:24:10.891Z,7860.00
2019-03-24T08:25:10.876Z,8708.00
2019-03-24T08:26:10.876Z,7620.00
2019-03-24T08:27:10.845Z,7580.00
2019-03-24T08:28:10.847Z,8256.00
2019-03-24T08:29:10.828Z,7828.00
2019-03-24T08:30:10.828Z,8344.00
2019-03-24T08:31:10.831Z,8564.00
2019-03-24T08:32:10.796Z,7972.00
2019-03-24T08:33:10.785Z,7860.00
2019-03-24T08:34:10.781Z,8044.00
2019-03-24T08:35:10.759Z,8176.00
2019-03-24T08:36:10.774Z,8440.00
2019-03-24T08:37:10.734Z,8724.00
2019-03-24T08:38:10.732Z,9380.00
2019-03-24T08:39:10.765Z,9452.00
2019-03-24T08:40:10.702Z,10272.00
2019-03-24T08:41:10.708Z,10716.00
2019-03-24T08:42:10.676Z,11392.00
2019-03-24T08:43:10.678Z,12164.00
2019-03-24T08:44:10.656Z,12484.00
2019-03-24T08:45:10.650Z,12412.00
2019-03-24T08:46:10.657Z,12156.00
2019-03-24T08:47:10.636Z,12056.00
2019-03-24T08:48:10.610Z,11404.00
2019-03-24T08:49:10.603Z,10500.00
2019-03-24T08:50:10.588Z,10328.00
2019-03-24T08:51:10.598Z,10328.00
2019-03-24T08:52:10.571Z,10288.00
2019-03-24T08:53:10.547Z,10344.00
2019-03-24T08:54:10.568Z,10608.00
2019-03-24T08:55:10.542Z,10652.00
2019-03-24T08:56:10.599Z,10772.00
2019-03-24T08:57:10.508Z,10856.00
2019-03-24T08:58:10.506Z,11072.00
2019-03-24T08:59:10.489Z,11204.00
2019-03-24T09:00:10.485Z,11652.00
2019-03-24T09:01:10.490Z,11928.00
2019-03-24T09:02:10.456Z,12240.00
2019-03-24T09:03:10.447Z,12832.00
2019-03-24T09:04:10.453Z,13116.00
2019-03-24T09:05:10.420Z,13532.00
2019-03-24T09:06:10.457Z,14088.00
2019-03-24T09:07:10.409Z,14644.00
2019-03-24T09:08:10.394Z,15072.00
2019-03-24T09:09:10.383Z,15248.00
2019-03-24T09:10:10.363Z,15352.00
2019-03-24T09:11:10.359Z,15224.00
2019-03-24T09:12:10.347Z,15372.00
2019-03-24T09:13:10.428Z,15572.00
2019-03-24T09:14:10.319Z,15300.00
2019-03-24T09:15:10.322Z,15188.00
2019-03-24T09:16:10.331Z,14824.00
2019-03-24T09:17:10.495Z,14740.00
2019-03-24T09:18:10.289Z,14252.00
2019-03-24T09:19:10.278Z,14264.00
2019-03-24T09:20:10.283Z,14628.00
2019-03-24T09:21:10.261Z,13416.00
2019-03-24T09:22:10.224Z,13332.00
2019-03-24T09:23:10.703Z,12668.00
2019-03-24T09:24:10.257Z,12164.00
2019-03-24T09:25:10.201Z,12676.00
2019-03-24T09:26:10.219Z,11948.00
2019-03-24T09:27:10.183Z,12584.00
2019-03-24T09:28:10.162Z,13416.00
2019-03-24T09:29:10.160Z,12788.00
2019-03-24T09:30:10.149Z,13172.00
2019-03-24T09:31:10.156Z,13868.00
2019-03-24T09:32:10.125Z,12884.00
2019-03-24T09:33:10.098Z,12612.00
2019-03-24T09:34:10.094Z,12680.00
2019-03-24T09:35:10.079Z,11996.00
2019-03-24T09:36:10.087Z,12436.00
2019-03-24T09:37:10.060Z,11808.00
2019-03-24T09:38:10.050Z,11824.00
2019-03-24T09:39:10.038Z,10256.00
2019-03-24T09:40:10.036Z,10788.00
2019-03-24T09:41:10.061Z,9592.00
2019-03-24T09:42:09.998Z,9436.00
2019-03-24T09:43:10.005Z,8888.00
2019-03-24T09:44:09.983Z,8248.00
2019-03-24T09:45:09.976Z,8208.00
2019-03-24T09:46:10.000Z,8264.00
2019-03-24T09:47:09.954Z,7176.00
2019-03-24T09:48:09.968Z,7620.00
2019-03-24T09:49:09.925Z,7544.00
2019-03-24T09:50:09.910Z,6960.00
2019-03-24T09:51:09.913Z,6820.00
2019-03-24T09:52:09.891Z,6724.00
2019-03-24T09:53:09.890Z,6592.00
2019-03-24T09:54:09.863Z,6436.00
2019-03-24T09:55:09.856Z,6636.00
2019-03-24T09:56:09.857Z,7328.00
2019-03-24T09:57:09.845Z,8296.00
2019-03-24T09:58:09.815Z,9264.00
2019-03-24T09:59:09.808Z,10248.00
2019-03-24T10:00:09.802Z,11404.00
2019-03-24T10:01:09.801Z,13408.00
2019-03-24T10:02:09.785Z,16664.00
2019-03-24T10:03:09.756Z,21472.00
2019-03-24T10:04:09.763Z,26592.00
2019-03-24T10:05:09.738Z,32704.00
2019-03-24T10:06:09.745Z,38112.00
2019-03-24T10:07:09.716Z,40480.00
2019-03-24T10:08:09.733Z,40800.00
2019-03-24T10:09:09.753Z,45088.00
2019-03-24T10:10:09.692Z,47648.00
2019-03-24T10:11:09.707Z,45600.00
2019-03-24T10:12:09.667Z,44864.00
2019-03-24T10:13:09.652Z,48512.00
2019-03-24T10:14:09.630Z,49696.00
2019-03-24T10:15:09.633Z,50624.00
2019-03-24T10:16:09.613Z,50080.00
2019-03-24T10:17:09.614Z,52256.00
2019-03-24T10:18:09.593Z,54848.00
2019-03-24T10:19:14.050Z,61280.00
2019-03-24T10:20:09.570Z,55360.00
2019-03-24T10:21:09.568Z,52576.00
2019-03-24T10:22:09.581Z,60416.00
2019-03-24T10:23:09.537Z,96544.00
2019-03-24T10:24:09.560Z,107456.00
2019-03-24T10:25:09.554Z,103648.00
2019-03-24T10:26:09.509Z,104416.00
2019-03-24T10:27:09.504Z,105600.00
2019-03-24T10:28:09.481Z,110496.00
2019-03-24T10:29:09.480Z,111584.00
2019-03-24T10:30:09.471Z,113088.00
2019-03-24T10:31:09.443Z,116992.00
2019-03-24T10:32:09.464Z,103424.00
2019-03-24T10:33:09.425Z,80672.00
2019-03-24T10:34:09.410Z,46560.00
2019-03-24T10:35:09.405Z,53536.00
2019-03-24T10:36:09.454Z,47104.00
2019-03-24T10:37:09.401Z,44480.00
2019-03-24T10:38:09.374Z,42816.00
2019-03-24T10:39:09.359Z,34112.00
2019-03-24T10:40:09.347Z,40672.00
2019-03-24T10:41:09.347Z,43552.00
2019-03-24T10:42:09.344Z,32096.00
2019-03-24T10:43:09.311Z,35648.00
2019-03-24T10:44:09.309Z,39968.00
2019-03-24T10:45:09.284Z,55712.00
2019-03-24T10:46:09.285Z,110240.00
2019-03-24T10:47:09.289Z,62080.00
2019-03-24T10:48:09.254Z,39008.00
2019-03-24T10:49:09.255Z,54208.00
2019-03-24T10:50:09.232Z,41344.00
2019-03-24T10:51:09.223Z,96736.00
2019-03-24T10:52:09.274Z,100064.00
2019-03-24T10:53:09.221Z,104544.00
2019-03-24T10:54:09.188Z,89440.00
2019-03-24T10:55:09.191Z,125792.00
2019-03-24T10:56:09.167Z,134048.00
2019-03-24T10:57:09.156Z,77216.00
2019-03-24T10:58:09.255Z,42240.00
2019-03-24T10:59:09.156Z,142176.00
2019-03-24T11:00:09.129Z,123936.00
2019-03-24T11:01:09.115Z,51520.00
2019-03-24T11:02:09.099Z,82176.00
2019-03-24T11:03:09.121Z,23008.00
2019-03-24T11:04:09.084Z,21216.00
2019-03-24T11:05:09.067Z,22848.00
2019-03-24T11:06:09.058Z,45760.00
2019-03-24T11:07:09.045Z,20928.00
2019-03-24T11:08:09.098Z,19776.00
2019-03-24T11:09:09.024Z,15240.00
2019-03-24T11:10:09.026Z,36096.00
2019-03-24T11:11:09.001Z,93792.00
2019-03-24T11:12:09.001Z,123232.00
2019-03-24T11:13:08.999Z,115776.00
2019-03-24T11:14:08.969Z,74752.00
2019-03-24T11:15:08.955Z,114656.00
2019-03-24T11:16:08.965Z,120736.00
2019-03-24T11:17:08.945Z,121920.00
2019-03-24T11:18:08.942Z,117376.00
2019-03-24T11:19:08.916Z,119552.00
2019-03-24T11:20:08.902Z,120288.00
2019-03-24T11:21:09.036Z,122272.00
2019-03-24T11:22:08.876Z,54848.00
2019-03-24T11:23:08.919Z,121664.00
2019-03-24T11:24:08.867Z,123648.00
2019-03-24T11:25:08.855Z,135424.00
2019-03-24T11:26:08.833Z,139808.00
2019-03-24T11:27:08.841Z,119072.00
2019-03-24T11:28:08.838Z,144672.00
2019-03-24T11:29:08.815Z,73184.00
2019-03-24T11:30:08.792Z,59552.00
2019-03-24T11:31:08.793Z,62624.00
2019-03-24T11:32:08.778Z,75648.00
2019-03-24T11:33:09.439Z,83968.00
2019-03-24T11:34:08.760Z,70944.00
2019-03-24T11:35:08.743Z,51712.00
2019-03-24T11:36:08.734Z,41408.00
2019-03-24T11:37:08.728Z,35488.00
2019-03-24T11:38:08.739Z,39328.00
2019-03-24T11:39:08.705Z,36160.00
2019-03-24T11:40:08.698Z,79488.00
2019-03-24T11:41:08.678Z,39264.00
2019-03-24T11:42:08.668Z,32352.00
2019-03-24T11:43:08.676Z,31328.00
2019-03-24T11:44:08.652Z,66624.00
2019-03-24T11:45:08.643Z,30912.00
2019-03-24T11:46:08.625Z,47008.00
2019-03-24T11:47:08.614Z,34944.00
2019-03-24T11:48:08.630Z,34528.00
2019-03-24T11:49:08.590Z,27328.00
2019-03-24T11:50:08.587Z,28960.00
2019-03-24T11:51:08.586Z,20288.00
2019-03-24T11:52:08.562Z,19392.00
2019-03-24T11:53:08.569Z,20992.00
2019-03-24T11:54:08.536Z,26816.00
2019-03-24T11:55:08.525Z,29824.00
2019-03-24T11:56:08.523Z,29280.00
2019-03-24T11:57:08.519Z,55968.00
2019-03-24T11:58:08.514Z,35712.00
2019-03-24T11:59:08.494Z,29920.00
2019-03-24T12:00:08.477Z,32608.00
2019-03-24T12:01:08.460Z,103552.00
2019-03-24T12:02:08.456Z,50624.00
2019-03-24T12:03:08.459Z,92320.00
2019-03-24T12:04:08.421Z,74656.00
2019-03-24T12:05:08.422Z,64032.00
2019-03-24T12:06:14.531Z,74336.00
2019-03-24T12:07:09.428Z,78880.00
2019-03-24T12:08:08.388Z,80832.00
2019-03-24T12:09:08.393Z,34688.00
2019-03-24T12:10:08.361Z,42048.00
2019-03-24T12:11:08.362Z,45888.00
2019-03-24T12:12:08.350Z,41056.00
2019-03-24T12:13:08.334Z,60416.00
2019-03-24T12:14:08.353Z,29216.00
2019-03-24T12:15:08.311Z,29120.00
2019-03-24T12:16:08.297Z,61440.00
2019-03-24T12:17:08.292Z,29312.00
2019-03-24T12:18:08.292Z,33088.00
2019-03-24T12:19:08.286Z,54464.00
2019-03-24T12:20:08.266Z,28704.00
2019-03-24T12:21:08.255Z,44320.00
2019-03-24T12:22:08.239Z,33440.00
2019-03-24T12:23:08.225Z,28480.00
2019-03-24T12:24:08.236Z,26432.00
2019-03-24T12:25:08.201Z,28224.00
2019-03-24T12:26:08.196Z,28928.00